Aviation Digital Data Service (ADDS)

Output produced by METARs form (1612 UTC 22 December 2014)
found at http://www.aviationweather.gov/adds/metars/
 
KCMI 221140Z 2212/2312 12012KT 6SM BR VCSH BKN035 
     FM221400 11013KT 5SM -RA BR SCT012 OVC030 
     FM221500 12014KT 3SM -RA BR SCT007 OVC015 
     FM221800 12015G19KT 1 1/2SM -RA BR OVC004 
     FM230400 12014KT 2SM -RA BR OVC004